sensor_id;sensor_type;location;lat;lon;timestamp;P1;durP1;ratioP1;P2;durP2;ratioP2
54845;SDS011;53889;50.084;8.646;2023-11-19T00:00:58;14.50;;;9.80;;
54845;SDS011;53889;50.084;8.646;2023-11-19T00:03:25;10.57;;;7.43;;
54845;SDS011;53889;50.084;8.646;2023-11-19T00:05:53;11.27;;;8.38;;
54845;SDS011;53889;50.084;8.646;2023-11-19T00:08:20;11.80;;;8.75;;
54845;SDS011;53889;50.084;8.646;2023-11-19T00:10:48;12.90;;;9.63;;
54845;SDS011;53889;50.084;8.646;2023-11-19T00:13:16;12.23;;;8.50;;
54845;SDS011;53889;50.084;8.646;2023-11-19T00:15:42;12.10;;;8.43;;
54845;SDS011;53889;50.084;8.646;2023-11-19T00:18:10;14.00;;;8.98;;
54845;SDS011;53889;50.084;8.646;2023-11-19T00:20:37;13.85;;;9.25;;
54845;SDS011;53889;50.084;8.646;2023-11-19T00:23:05;13.13;;;9.25;;
54845;SDS011;53889;50.084;8.646;2023-11-19T00:25:32;13.73;;;8.75;;
54845;SDS011;53889;50.084;8.646;2023-11-19T00:27:59;12.65;;;9.40;;
54845;SDS011;53889;50.084;8.646;2023-11-19T00:30:26;13.13;;;10.30;;
54845;SDS011;53889;50.084;8.646;2023-11-19T00:32:52;14.43;;;9.63;;
54845;SDS011;53889;50.084;8.646;2023-11-19T00:35:20;14.50;;;9.98;;
54845;SDS011;53889;50.084;8.646;2023-11-19T00:37:46;15.23;;;10.73;;
54845;SDS011;53889;50.084;8.646;2023-11-19T00:40:16;14.38;;;9.50;;
54845;SDS011;53889;50.084;8.646;2023-11-19T00:42:43;16.48;;;9.98;;
54845;SDS011;53889;50.084;8.646;2023-11-19T00:45:10;16.33;;;10.40;;
54845;SDS011;53889;50.084;8.646;2023-11-19T00:47:38;15.02;;;10.65;;
54845;SDS011;53889;50.084;8.646;2023-11-19T00:50:05;13.38;;;9.93;;
54845;SDS011;53889;50.084;8.646;2023-11-19T00:52:34;14.30;;;9.77;;
54845;SDS011;53889;50.084;8.646;2023-11-19T00:55:02;15.85;;;10.38;;
54845;SDS011;53889;50.084;8.646;2023-11-19T00:57:30;14.50;;;10.68;;
54845;SDS011;53889;50.084;8.646;2023-11-19T00:59:58;13.07;;;8.93;;
54845;SDS011;53889;50.084;8.646;2023-11-19T01:02:25;12.27;;;8.68;;
54845;SDS011;53889;50.084;8.646;2023-11-19T01:04:51;12.48;;;8.55;;
54845;SDS011;53889;50.084;8.646;2023-11-19T01:07:19;11.82;;;8.50;;
54845;SDS011;53889;50.084;8.646;2023-11-19T01:09:47;12.00;;;8.82;;
54845;SDS011;53889;50.084;8.646;2023-11-19T01:12:13;11.95;;;8.25;;
54845;SDS011;53889;50.084;8.646;2023-11-19T01:14:41;13.90;;;9.35;;
54845;SDS011;53889;50.084;8.646;2023-11-19T01:17:08;14.35;;;9.50;;
54845;SDS011;53889;50.084;8.646;2023-11-19T01:19:34;13.23;;;8.95;;
54845;SDS011;53889;50.084;8.646;2023-11-19T01:22:01;13.63;;;9.35;;
54845;SDS011;53889;50.084;8.646;2023-11-19T01:24:28;18.67;;;12.10;;
54845;SDS011;53889;50.084;8.646;2023-11-19T01:26:56;12.70;;;9.00;;
54845;SDS011;53889;50.084;8.646;2023-11-19T01:29:24;13.07;;;9.13;;
54845;SDS011;53889;50.084;8.646;2023-11-19T01:31:52;12.48;;;9.00;;
54845;SDS011;53889;50.084;8.646;2023-11-19T01:34:19;10.80;;;8.18;;
54845;SDS011;53889;50.084;8.646;2023-11-19T01:36:46;10.85;;;7.95;;
54845;SDS011;53889;50.084;8.646;2023-11-19T01:39:13;11.23;;;7.80;;
54845;SDS011;53889;50.084;8.646;2023-11-19T01:41:41;10.52;;;7.88;;
54845;SDS011;53889;50.084;8.646;2023-11-19T01:44:08;11.32;;;8.02;;
54845;SDS011;53889;50.084;8.646;2023-11-19T01:46:37;11.90;;;8.55;;
54845;SDS011;53889;50.084;8.646;2023-11-19T01:49:05;9.93;;;7.22;;
54845;SDS011;53889;50.084;8.646;2023-11-19T01:51:33;10.18;;;7.22;;
54845;SDS011;53889;50.084;8.646;2023-11-19T01:54:00;12.93;;;7.45;;
54845;SDS011;53889;50.084;8.646;2023-11-19T01:56:27;10.13;;;6.95;;
54845;SDS011;53889;50.084;8.646;2023-11-19T01:58:55;9.35;;;6.68;;
54845;SDS011;53889;50.084;8.646;2023-11-19T02:01:23;9.88;;;7.07;;
54845;SDS011;53889;50.084;8.646;2023-11-19T02:03:50;12.45;;;7.95;;
54845;SDS011;53889;50.084;8.646;2023-11-19T02:06:19;12.25;;;8.15;;
54845;SDS011;53889;50.084;8.646;2023-11-19T02:08:46;11.30;;;7.45;;
54845;SDS011;53889;50.084;8.646;2023-11-19T02:11:12;8.65;;;6.78;;
54845;SDS011;53889;50.084;8.646;2023-11-19T02:13:39;9.98;;;7.60;;
54845;SDS011;53889;50.084;8.646;2023-11-19T02:16:08;9.68;;;7.05;;
54845;SDS011;53889;50.084;8.646;2023-11-19T02:18:36;9.20;;;6.90;;
54845;SDS011;53889;50.084;8.646;2023-11-19T02:21:03;11.18;;;6.50;;
54845;SDS011;53889;50.084;8.646;2023-11-19T02:23:32;9.10;;;7.13;;
54845;SDS011;53889;50.084;8.646;2023-11-19T02:26:03;9.20;;;6.30;;
54845;SDS011;53889;50.084;8.646;2023-11-19T02:28:37;10.93;;;6.80;;
54845;SDS011;53889;50.084;8.646;2023-11-19T02:31:05;8.23;;;6.35;;
54845;SDS011;53889;50.084;8.646;2023-11-19T02:33:34;8.65;;;6.60;;
54845;SDS011;53889;50.084;8.646;2023-11-19T02:36:01;7.90;;;5.97;;
54845;SDS011;53889;50.084;8.646;2023-11-19T02:38:28;6.68;;;5.63;;
54845;SDS011;53889;50.084;8.646;2023-11-19T02:40:55;6.95;;;5.50;;
54845;SDS011;53889;50.084;8.646;2023-11-19T02:43:22;9.05;;;6.57;;
54845;SDS011;53889;50.084;8.646;2023-11-19T02:45:50;7.78;;;5.63;;
54845;SDS011;53889;50.084;8.646;2023-11-19T02:48:20;8.63;;;6.55;;
54845;SDS011;53889;50.084;8.646;2023-11-19T02:50:47;10.85;;;6.63;;
54845;SDS011;53889;50.084;8.646;2023-11-19T02:53:14;6.72;;;5.32;;
54845;SDS011;53889;50.084;8.646;2023-11-19T02:55:41;7.57;;;4.80;;
54845;SDS011;53889;50.084;8.646;2023-11-19T02:58:13;9.90;;;5.60;;
54845;SDS011;53889;50.084;8.646;2023-11-19T03:00:48;6.10;;;4.95;;
54845;SDS011;53889;50.084;8.646;2023-11-19T03:03:23;7.32;;;5.50;;
54845;SDS011;53889;50.084;8.646;2023-11-19T03:05:54;7.47;;;5.55;;
54845;SDS011;53889;50.084;8.646;2023-11-19T03:08:20;7.57;;;5.75;;
54845;SDS011;53889;50.084;8.646;2023-11-19T03:10:47;6.95;;;5.32;;
54845;SDS011;53889;50.084;8.646;2023-11-19T03:13:14;6.82;;;5.30;;
54845;SDS011;53889;50.084;8.646;2023-11-19T03:15:42;7.28;;;5.15;;
54845;SDS011;53889;50.084;8.646;2023-11-19T03:18:09;9.57;;;5.20;;
54845;SDS011;53889;50.084;8.646;2023-11-19T03:20:37;7.43;;;5.72;;
54845;SDS011;53889;50.084;8.646;2023-11-19T03:23:03;8.35;;;6.15;;
54845;SDS011;53889;50.084;8.646;2023-11-19T03:25:31;7.22;;;5.50;;
54845;SDS011;53889;50.084;8.646;2023-11-19T03:28:00;6.97;;;5.60;;
54845;SDS011;53889;50.084;8.646;2023-11-19T03:30:27;7.28;;;5.28;;
54845;SDS011;53889;50.084;8.646;2023-11-19T03:32:54;8.15;;;5.63;;
54845;SDS011;53889;50.084;8.646;2023-11-19T03:35:21;6.72;;;5.68;;
54845;SDS011;53889;50.084;8.646;2023-11-19T03:37:49;7.32;;;5.70;;
54845;SDS011;53889;50.084;8.646;2023-11-19T03:40:16;8.02;;;5.43;;
54845;SDS011;53889;50.084;8.646;2023-11-19T03:42:44;7.55;;;5.30;;
54845;SDS011;53889;50.084;8.646;2023-11-19T03:45:10;6.85;;;5.38;;
54845;SDS011;53889;50.084;8.646;2023-11-19T03:47:37;8.43;;;6.57;;
54845;SDS011;53889;50.084;8.646;2023-11-19T03:50:05;7.38;;;5.93;;
54845;SDS011;53889;50.084;8.646;2023-11-19T03:52:32;5.40;;;4.32;;
54845;SDS011;53889;50.084;8.646;2023-11-19T03:55:01;6.97;;;5.90;;
54845;SDS011;53889;50.084;8.646;2023-11-19T03:57:28;7.95;;;6.07;;
54845;SDS011;53889;50.084;8.646;2023-11-19T03:59:54;8.35;;;6.30;;
54845;SDS011;53889;50.084;8.646;2023-11-19T04:02:23;8.45;;;5.15;;
54845;SDS011;53889;50.084;8.646;2023-11-19T04:04:52;6.90;;;5.15;;
54845;SDS011;53889;50.084;8.646;2023-11-19T04:07:19;8.65;;;5.68;;
54845;SDS011;53889;50.084;8.646;2023-11-19T04:09:46;6.78;;;5.05;;
54845;SDS011;53889;50.084;8.646;2023-11-19T04:12:14;6.03;;;4.63;;
54845;SDS011;53889;50.084;8.646;2023-11-19T04:14:41;6.13;;;4.65;;
54845;SDS011;53889;50.084;8.646;2023-11-19T04:17:07;6.35;;;5.03;;
54845;SDS011;53889;50.084;8.646;2023-11-19T04:19:34;7.68;;;4.97;;
54845;SDS011;53889;50.084;8.646;2023-11-19T04:22:01;6.03;;;4.35;;
54845;SDS011;53889;50.084;8.646;2023-11-19T04:24:27;5.72;;;3.90;;
54845;SDS011;53889;50.084;8.646;2023-11-19T04:26:54;7.53;;;5.68;;
54845;SDS011;53889;50.084;8.646;2023-11-19T04:29:22;6.43;;;4.15;;
54845;SDS011;53889;50.084;8.646;2023-11-19T04:31:50;5.18;;;4.05;;
54845;SDS011;53889;50.084;8.646;2023-11-19T04:34:17;6.85;;;4.57;;
54845;SDS011;53889;50.084;8.646;2023-11-19T04:36:44;5.43;;;4.05;;
54845;SDS011;53889;50.084;8.646;2023-11-19T04:39:10;5.40;;;3.90;;
54845;SDS011;53889;50.084;8.646;2023-11-19T04:41:45;6.32;;;3.92;;
54845;SDS011;53889;50.084;8.646;2023-11-19T04:44:12;6.13;;;3.95;;
54845;SDS011;53889;50.084;8.646;2023-11-19T04:46:42;6.88;;;4.35;;
54845;SDS011;53889;50.084;8.646;2023-11-19T04:49:09;7.43;;;5.00;;
54845;SDS011;53889;50.084;8.646;2023-11-19T04:51:38;6.05;;;4.72;;
54845;SDS011;53889;50.084;8.646;2023-11-19T04:54:05;6.40;;;4.72;;
54845;SDS011;53889;50.084;8.646;2023-11-19T04:56:33;6.72;;;4.90;;
54845;SDS011;53889;50.084;8.646;2023-11-19T04:59:00;6.90;;;4.70;;
54845;SDS011;53889;50.084;8.646;2023-11-19T05:01:27;7.50;;;4.90;;
54845;SDS011;53889;50.084;8.646;2023-11-19T05:03:55;5.97;;;4.68;;
54845;SDS011;53889;50.084;8.646;2023-11-19T05:06:25;6.75;;;4.70;;
54845;SDS011;53889;50.084;8.646;2023-11-19T05:08:53;5.97;;;4.63;;
54845;SDS011;53889;50.084;8.646;2023-11-19T05:11:20;7.10;;;4.88;;
54845;SDS011;53889;50.084;8.646;2023-11-19T05:13:46;6.82;;;5.50;;
54845;SDS011;53889;50.084;8.646;2023-11-19T05:16:13;8.00;;;4.88;;
54845;SDS011;53889;50.084;8.646;2023-11-19T05:18:40;7.90;;;5.70;;
54845;SDS011;53889;50.084;8.646;2023-11-19T05:21:09;7.72;;;5.85;;
54845;SDS011;53889;50.084;8.646;2023-11-19T05:23:36;8.25;;;4.78;;
54845;SDS011;53889;50.084;8.646;2023-11-19T05:26:03;5.65;;;4.72;;
54845;SDS011;53889;50.084;8.646;2023-11-19T05:28:30;6.50;;;5.25;;
54845;SDS011;53889;50.084;8.646;2023-11-19T05:30:57;6.15;;;4.97;;
54845;SDS011;53889;50.084;8.646;2023-11-19T05:33:24;7.95;;;5.05;;
54845;SDS011;53889;50.084;8.646;2023-11-19T05:35:51;6.80;;;4.95;;
54845;SDS011;53889;50.084;8.646;2023-11-19T05:38:19;7.03;;;4.80;;
54845;SDS011;53889;50.084;8.646;2023-11-19T05:40:46;7.70;;;5.53;;
54845;SDS011;53889;50.084;8.646;2023-11-19T05:43:14;6.70;;;5.18;;
54845;SDS011;53889;50.084;8.646;2023-11-19T05:45:41;7.55;;;5.68;;
54845;SDS011;53889;50.084;8.646;2023-11-19T05:48:08;7.72;;;4.68;;
54845;SDS011;53889;50.084;8.646;2023-11-19T05:50:35;7.95;;;5.47;;
54845;SDS011;53889;50.084;8.646;2023-11-19T05:53:02;7.75;;;5.32;;
54845;SDS011;53889;50.084;8.646;2023-11-19T05:55:33;8.52;;;6.18;;
54845;SDS011;53889;50.084;8.646;2023-11-19T05:58:00;8.98;;;6.35;;
54845;SDS011;53889;50.084;8.646;2023-11-19T06:00:28;7.47;;;5.78;;
54845;SDS011;53889;50.084;8.646;2023-11-19T06:02:55;9.73;;;5.63;;
54845;SDS011;53889;50.084;8.646;2023-11-19T06:05:22;7.07;;;5.72;;
54845;SDS011;53889;50.084;8.646;2023-11-19T06:07:49;7.72;;;5.28;;
54845;SDS011;53889;50.084;8.646;2023-11-19T06:10:16;8.65;;;5.70;;
54845;SDS011;53889;50.084;8.646;2023-11-19T06:12:45;8.55;;;5.38;;
54845;SDS011;53889;50.084;8.646;2023-11-19T06:15:12;7.35;;;5.40;;
54845;SDS011;53889;50.084;8.646;2023-11-19T06:17:39;6.88;;;4.22;;
54845;SDS011;53889;50.084;8.646;2023-11-19T06:20:06;7.57;;;4.78;;
54845;SDS011;53889;50.084;8.646;2023-11-19T06:22:34;6.68;;;4.43;;
54845;SDS011;53889;50.084;8.646;2023-11-19T06:25:01;5.57;;;4.03;;
54845;SDS011;53889;50.084;8.646;2023-11-19T06:27:32;6.13;;;4.45;;
54845;SDS011;53889;50.084;8.646;2023-11-19T06:30:00;5.85;;;3.67;;
54845;SDS011;53889;50.084;8.646;2023-11-19T06:32:27;7.18;;;4.90;;
54845;SDS011;53889;50.084;8.646;2023-11-19T06:34:54;6.10;;;3.90;;
54845;SDS011;53889;50.084;8.646;2023-11-19T06:37:21;6.22;;;3.97;;
54845;SDS011;53889;50.084;8.646;2023-11-19T06:39:48;5.78;;;3.75;;
54845;SDS011;53889;50.084;8.646;2023-11-19T06:42:15;6.43;;;4.35;;
54845;SDS011;53889;50.084;8.646;2023-11-19T06:44:42;5.13;;;3.80;;
54845;SDS011;53889;50.084;8.646;2023-11-19T06:47:10;5.68;;;4.40;;
54845;SDS011;53889;50.084;8.646;2023-11-19T06:49:36;7.05;;;4.68;;
54845;SDS011;53889;50.084;8.646;2023-11-19T06:52:03;6.43;;;4.15;;
54845;SDS011;53889;50.084;8.646;2023-11-19T06:54:30;5.55;;;3.88;;
54845;SDS011;53889;50.084;8.646;2023-11-19T06:56:58;6.22;;;4.38;;
54845;SDS011;53889;50.084;8.646;2023-11-19T06:59:25;5.78;;;4.30;;
54845;SDS011;53889;50.084;8.646;2023-11-19T07:01:52;5.30;;;4.03;;
54845;SDS011;53889;50.084;8.646;2023-11-19T07:04:20;5.43;;;3.95;;
54845;SDS011;53889;50.084;8.646;2023-11-19T07:06:47;6.90;;;4.50;;
54845;SDS011;53889;50.084;8.646;2023-11-19T07:09:14;4.97;;;3.80;;
54845;SDS011;53889;50.084;8.646;2023-11-19T07:11:41;5.70;;;4.43;;
54845;SDS011;53889;50.084;8.646;2023-11-19T07:14:09;6.40;;;4.55;;
54845;SDS011;53889;50.084;8.646;2023-11-19T07:16:36;5.35;;;3.88;;
54845;SDS011;53889;50.084;8.646;2023-11-19T07:19:03;7.25;;;4.43;;
54845;SDS011;53889;50.084;8.646;2023-11-19T07:21:32;8.13;;;5.53;;
54845;SDS011;53889;50.084;8.646;2023-11-19T07:24:00;6.50;;;4.82;;
54845;SDS011;53889;50.084;8.646;2023-11-19T07:26:28;6.82;;;5.22;;
54845;SDS011;53889;50.084;8.646;2023-11-19T07:28:54;7.32;;;3.90;;
54845;SDS011;53889;50.084;8.646;2023-11-19T07:31:21;6.97;;;4.38;;
54845;SDS011;53889;50.084;8.646;2023-11-19T07:33:49;5.93;;;4.65;;
54845;SDS011;53889;50.084;8.646;2023-11-19T07:36:15;7.85;;;4.70;;
54845;SDS011;53889;50.084;8.646;2023-11-19T07:38:45;4.97;;;3.90;;
54845;SDS011;53889;50.084;8.646;2023-11-19T07:41:11;6.82;;;4.60;;
54845;SDS011;53889;50.084;8.646;2023-11-19T07:43:38;6.93;;;4.72;;
54845;SDS011;53889;50.084;8.646;2023-11-19T07:46:10;6.80;;;5.22;;
54845;SDS011;53889;50.084;8.646;2023-11-19T07:48:38;6.28;;;4.85;;
54845;SDS011;53889;50.084;8.646;2023-11-19T07:51:05;6.35;;;4.82;;
54845;SDS011;53889;50.084;8.646;2023-11-19T07:53:32;6.88;;;4.95;;
54845;SDS011;53889;50.084;8.646;2023-11-19T07:56:00;6.05;;;4.75;;
54845;SDS011;53889;50.084;8.646;2023-11-19T07:58:27;5.70;;;3.78;;
54845;SDS011;53889;50.084;8.646;2023-11-19T08:00:54;5.80;;;4.18;;
54845;SDS011;53889;50.084;8.646;2023-11-19T08:03:20;5.80;;;4.00;;
54845;SDS011;53889;50.084;8.646;2023-11-19T08:05:48;8.40;;;5.38;;
54845;SDS011;53889;50.084;8.646;2023-11-19T08:08:14;5.20;;;3.30;;
54845;SDS011;53889;50.084;8.646;2023-11-19T08:10:42;4.30;;;3.40;;
54845;SDS011;53889;50.084;8.646;2023-11-19T08:13:10;5.15;;;4.30;;
54845;SDS011;53889;50.084;8.646;2023-11-19T08:15:37;6.00;;;4.20;;
54845;SDS011;53889;50.084;8.646;2023-11-19T08:18:04;6.93;;;3.88;;
54845;SDS011;53889;50.084;8.646;2023-11-19T08:20:32;5.80;;;3.10;;
54845;SDS011;53889;50.084;8.646;2023-11-19T08:22:59;5.90;;;3.55;;
54845;SDS011;53889;50.084;8.646;2023-11-19T08:25:25;4.53;;;3.15;;
54845;SDS011;53889;50.084;8.646;2023-11-19T08:27:54;4.82;;;3.60;;
54845;SDS011;53889;50.084;8.646;2023-11-19T08:30:22;4.93;;;3.67;;
54845;SDS011;53889;50.084;8.646;2023-11-19T08:32:49;4.90;;;3.30;;
54845;SDS011;53889;50.084;8.646;2023-11-19T08:35:16;4.95;;;3.47;;
54845;SDS011;53889;50.084;8.646;2023-11-19T08:37:42;3.60;;;2.95;;
54845;SDS011;53889;50.084;8.646;2023-11-19T08:40:11;4.50;;;3.45;;
54845;SDS011;53889;50.084;8.646;2023-11-19T08:42:40;4.38;;;3.03;;
54845;SDS011;53889;50.084;8.646;2023-11-19T08:45:07;5.68;;;3.72;;
54845;SDS011;53889;50.084;8.646;2023-11-19T08:47:36;4.75;;;3.10;;
54845;SDS011;53889;50.084;8.646;2023-11-19T08:50:05;4.78;;;3.75;;
54845;SDS011;53889;50.084;8.646;2023-11-19T08:52:33;5.75;;;3.45;;
54845;SDS011;53889;50.084;8.646;2023-11-19T08:55:00;6.28;;;4.35;;
54845;SDS011;53889;50.084;8.646;2023-11-19T08:57:26;4.85;;;3.90;;
54845;SDS011;53889;50.084;8.646;2023-11-19T08:59:53;5.28;;;4.35;;
54845;SDS011;53889;50.084;8.646;2023-11-19T09:02:19;8.02;;;5.20;;
54845;SDS011;53889;50.084;8.646;2023-11-19T09:04:47;8.05;;;4.60;;
54845;SDS011;53889;50.084;8.646;2023-11-19T09:07:14;5.88;;;4.50;;
54845;SDS011;53889;50.084;8.646;2023-11-19T09:09:41;6.20;;;3.90;;
54845;SDS011;53889;50.084;8.646;2023-11-19T09:12:07;13.75;;;5.47;;
54845;SDS011;53889;50.084;8.646;2023-11-19T09:14:34;6.45;;;4.55;;
54845;SDS011;53889;50.084;8.646;2023-11-19T09:17:01;7.90;;;4.60;;
54845;SDS011;53889;50.084;8.646;2023-11-19T09:19:28;6.00;;;4.53;;
54845;SDS011;53889;50.084;8.646;2023-11-19T09:21:55;6.53;;;4.03;;
54845;SDS011;53889;50.084;8.646;2023-11-19T09:24:22;4.93;;;3.60;;
54845;SDS011;53889;50.084;8.646;2023-11-19T09:26:49;4.78;;;3.00;;
54845;SDS011;53889;50.084;8.646;2023-11-19T09:29:15;4.60;;;2.60;;
54845;SDS011;53889;50.084;8.646;2023-11-19T09:31:42;3.75;;;2.17;;
54845;SDS011;53889;50.084;8.646;2023-11-19T09:34:09;3.42;;;2.25;;
54845;SDS011;53889;50.084;8.646;2023-11-19T09:36:36;3.00;;;1.90;;
54845;SDS011;53889;50.084;8.646;2023-11-19T09:39:04;4.55;;;2.10;;
54845;SDS011;53889;50.084;8.646;2023-11-19T09:41:33;4.38;;;1.83;;
54845;SDS011;53889;50.084;8.646;2023-11-19T09:43:59;2.92;;;1.60;;
54845;SDS011;53889;50.084;8.646;2023-11-19T09:46:26;2.75;;;1.40;;
54845;SDS011;53889;50.084;8.646;2023-11-19T09:48:54;2.42;;;1.15;;
54845;SDS011;53889;50.084;8.646;2023-11-19T09:51:24;3.85;;;1.00;;
54845;SDS011;53889;50.084;8.646;2023-11-19T09:53:51;4.45;;;1.30;;
54845;SDS011;53889;50.084;8.646;2023-11-19T09:56:19;2.88;;;1.40;;
54845;SDS011;53889;50.084;8.646;2023-11-19T09:58:47;3.70;;;1.38;;
54845;SDS011;53889;50.084;8.646;2023-11-19T10:01:13;4.28;;;1.20;;
54845;SDS011;53889;50.084;8.646;2023-11-19T10:03:40;3.72;;;1.38;;
54845;SDS011;53889;50.084;8.646;2023-11-19T10:06:09;5.40;;;1.10;;
54845;SDS011;53889;50.084;8.646;2023-11-19T10:08:36;7.22;;;1.35;;
54845;SDS011;53889;50.084;8.646;2023-11-19T10:11:04;3.90;;;1.50;;
54845;SDS011;53889;50.084;8.646;2023-11-19T10:13:32;3.95;;;1.30;;
54845;SDS011;53889;50.084;8.646;2023-11-19T10:16:03;4.65;;;1.60;;
54845;SDS011;53889;50.084;8.646;2023-11-19T10:18:30;4.00;;;1.58;;
54845;SDS011;53889;50.084;8.646;2023-11-19T10:21:03;4.32;;;1.60;;
54845;SDS011;53889;50.084;8.646;2023-11-19T10:23:30;3.53;;;1.50;;
54845;SDS011;53889;50.084;8.646;2023-11-19T10:26:02;3.38;;;1.20;;
54845;SDS011;53889;50.084;8.646;2023-11-19T10:28:39;4.10;;;1.55;;
54845;SDS011;53889;50.084;8.646;2023-11-19T10:31:07;6.60;;;1.55;;
54845;SDS011;53889;50.084;8.646;2023-11-19T10:33:34;5.15;;;1.50;;
54845;SDS011;53889;50.084;8.646;2023-11-19T10:36:01;6.18;;;1.50;;
54845;SDS011;53889;50.084;8.646;2023-11-19T10:38:27;4.20;;;1.63;;
54845;SDS011;53889;50.084;8.646;2023-11-19T10:40:55;3.88;;;1.42;;
54845;SDS011;53889;50.084;8.646;2023-11-19T10:43:22;8.55;;;2.10;;
54845;SDS011;53889;50.084;8.646;2023-11-19T10:45:51;4.70;;;1.70;;
54845;SDS011;53889;50.084;8.646;2023-11-19T10:48:18;6.18;;;1.67;;
54845;SDS011;53889;50.084;8.646;2023-11-19T10:50:46;5.53;;;1.83;;
54845;SDS011;53889;50.084;8.646;2023-11-19T10:53:19;4.75;;;1.60;;
54845;SDS011;53889;50.084;8.646;2023-11-19T10:55:51;4.43;;;1.63;;
54845;SDS011;53889;50.084;8.646;2023-11-19T10:58:19;4.78;;;1.52;;
54845;SDS011;53889;50.084;8.646;2023-11-19T11:00:47;5.03;;;1.80;;
54845;SDS011;53889;50.084;8.646;2023-11-19T11:03:20;8.35;;;1.90;;
54845;SDS011;53889;50.084;8.646;2023-11-19T11:05:49;5.50;;;1.65;;
54845;SDS011;53889;50.084;8.646;2023-11-19T11:08:16;6.72;;;2.03;;
54845;SDS011;53889;50.084;8.646;2023-11-19T11:10:44;6.68;;;2.20;;
54845;SDS011;53889;50.084;8.646;2023-11-19T11:13:12;5.18;;;1.80;;
54845;SDS011;53889;50.084;8.646;2023-11-19T11:15:40;12.07;;;1.88;;
54845;SDS011;53889;50.084;8.646;2023-11-19T11:18:08;9.32;;;2.10;;
54845;SDS011;53889;50.084;8.646;2023-11-19T11:20:36;7.05;;;2.00;;
54845;SDS011;53889;50.084;8.646;2023-11-19T11:23:09;9.90;;;3.97;;
54845;SDS011;53889;50.084;8.646;2023-11-19T11:26:00;8.32;;;2.00;;
54845;SDS011;53889;50.084;8.646;2023-11-19T11:28:41;7.78;;;2.08;;
54845;SDS011;53889;50.084;8.646;2023-11-19T11:31:15;7.32;;;1.90;;
54845;SDS011;53889;50.084;8.646;2023-11-19T11:33:59;8.43;;;2.00;;
54845;SDS011;53889;50.084;8.646;2023-11-19T11:36:49;9.50;;;1.90;;
54845;SDS011;53889;50.084;8.646;2023-11-19T11:39:24;7.80;;;1.52;;
54845;SDS011;53889;50.084;8.646;2023-11-19T11:45:00;9.15;;;2.00;;
54845;SDS011;53889;50.084;8.646;2023-11-19T11:50:32;7.60;;;1.65;;
54845;SDS011;53889;50.084;8.646;2023-11-19T11:53:16;8.00;;;2.25;;
54845;SDS011;53889;50.084;8.646;2023-11-19T11:55:57;9.70;;;2.25;;
54845;SDS011;53889;50.084;8.646;2023-11-19T11:58:29;7.57;;;2.05;;
54845;SDS011;53889;50.084;8.646;2023-11-19T12:00:58;8.75;;;1.80;;
54845;SDS011;53889;50.084;8.646;2023-11-19T12:03:27;4.88;;;1.45;;
54845;SDS011;53889;50.084;8.646;2023-11-19T12:05:54;8.20;;;2.15;;
54845;SDS011;53889;50.084;8.646;2023-11-19T12:08:24;11.07;;;3.90;;
54845;SDS011;53889;50.084;8.646;2023-11-19T12:10:53;8.38;;;2.00;;
54845;SDS011;53889;50.084;8.646;2023-11-19T12:13:23;6.72;;;2.30;;
54845;SDS011;53889;50.084;8.646;2023-11-19T12:16:09;8.68;;;2.17;;
54845;SDS011;53889;50.084;8.646;2023-11-19T12:18:38;10.32;;;2.10;;
54845;SDS011;53889;50.084;8.646;2023-11-19T12:21:06;12.40;;;2.17;;
54845;SDS011;53889;50.084;8.646;2023-11-19T12:23:36;7.70;;;2.65;;
54845;SDS011;53889;50.084;8.646;2023-11-19T12:26:20;6.85;;;1.75;;
54845;SDS011;53889;50.084;8.646;2023-11-19T12:28:59;8.48;;;2.03;;
54845;SDS011;53889;50.084;8.646;2023-11-19T12:31:29;6.78;;;1.70;;
54845;SDS011;53889;50.084;8.646;2023-11-19T12:33:56;6.20;;;1.80;;
54845;SDS011;53889;50.084;8.646;2023-11-19T12:36:23;8.70;;;1.75;;
54845;SDS011;53889;50.084;8.646;2023-11-19T12:38:51;6.40;;;1.45;;
54845;SDS011;53889;50.084;8.646;2023-11-19T12:41:18;4.00;;;1.30;;
54845;SDS011;53889;50.084;8.646;2023-11-19T12:43:48;8.93;;;3.00;;
54845;SDS011;53889;50.084;8.646;2023-11-19T12:46:19;6.18;;;1.40;;
54845;SDS011;53889;50.084;8.646;2023-11-19T12:48:47;5.75;;;2.10;;
54845;SDS011;53889;50.084;8.646;2023-11-19T12:51:14;6.22;;;1.70;;
54845;SDS011;53889;50.084;8.646;2023-11-19T12:53:47;7.82;;;2.05;;
54845;SDS011;53889;50.084;8.646;2023-11-19T12:56:17;5.72;;;1.70;;
54845;SDS011;53889;50.084;8.646;2023-11-19T12:58:43;7.85;;;1.80;;
54845;SDS011;53889;50.084;8.646;2023-11-19T13:01:14;6.22;;;1.40;;
54845;SDS011;53889;50.084;8.646;2023-11-19T13:03:42;6.70;;;1.80;;
54845;SDS011;53889;50.084;8.646;2023-11-19T13:06:09;6.10;;;1.73;;
54845;SDS011;53889;50.084;8.646;2023-11-19T13:08:37;6.70;;;1.90;;
54845;SDS011;53889;50.084;8.646;2023-11-19T13:11:05;6.85;;;1.75;;
54845;SDS011;53889;50.084;8.646;2023-11-19T13:13:49;5.30;;;1.63;;
54845;SDS011;53889;50.084;8.646;2023-11-19T13:16:19;8.23;;;1.80;;
54845;SDS011;53889;50.084;8.646;2023-11-19T13:18:47;7.10;;;1.70;;
54845;SDS011;53889;50.084;8.646;2023-11-19T13:21:13;6.95;;;1.60;;
54845;SDS011;53889;50.084;8.646;2023-11-19T13:23:40;9.05;;;2.58;;
54845;SDS011;53889;50.084;8.646;2023-11-19T13:26:07;9.13;;;2.35;;
54845;SDS011;53889;50.084;8.646;2023-11-19T13:28:35;7.15;;;1.90;;
54845;SDS011;53889;50.084;8.646;2023-11-19T13:31:02;5.75;;;1.52;;
54845;SDS011;53889;50.084;8.646;2023-11-19T13:33:29;6.75;;;1.50;;
54845;SDS011;53889;50.084;8.646;2023-11-19T13:35:56;7.53;;;1.60;;
54845;SDS011;53889;50.084;8.646;2023-11-19T13:38:24;6.88;;;2.00;;
54845;SDS011;53889;50.084;8.646;2023-11-19T13:40:51;5.70;;;1.58;;
54845;SDS011;53889;50.084;8.646;2023-11-19T13:43:18;7.38;;;1.92;;
54845;SDS011;53889;50.084;8.646;2023-11-19T13:45:47;17.75;;;4.30;;
54845;SDS011;53889;50.084;8.646;2023-11-19T13:48:13;13.68;;;4.75;;
54845;SDS011;53889;50.084;8.646;2023-11-19T13:50:41;9.43;;;2.53;;
54845;SDS011;53889;50.084;8.646;2023-11-19T13:53:08;9.48;;;1.92;;
54845;SDS011;53889;50.084;8.646;2023-11-19T13:55:35;7.63;;;2.58;;
54845;SDS011;53889;50.084;8.646;2023-11-19T13:58:02;8.30;;;2.08;;
54845;SDS011;53889;50.084;8.646;2023-11-19T14:00:30;7.63;;;1.83;;
54845;SDS011;53889;50.084;8.646;2023-11-19T14:02:58;8.93;;;2.00;;
54845;SDS011;53889;50.084;8.646;2023-11-19T14:05:25;8.45;;;2.33;;
54845;SDS011;53889;50.084;8.646;2023-11-19T14:07:52;7.65;;;1.90;;
54845;SDS011;53889;50.084;8.646;2023-11-19T14:10:21;10.45;;;2.10;;
54845;SDS011;53889;50.084;8.646;2023-11-19T14:12:48;7.03;;;2.17;;
54845;SDS011;53889;50.084;8.646;2023-11-19T14:15:15;6.32;;;1.70;;
54845;SDS011;53889;50.084;8.646;2023-11-19T14:17:43;8.10;;;3.40;;
54845;SDS011;53889;50.084;8.646;2023-11-19T14:20:11;8.32;;;2.33;;
54845;SDS011;53889;50.084;8.646;2023-11-19T14:22:38;6.65;;;2.50;;
54845;SDS011;53889;50.084;8.646;2023-11-19T14:25:06;7.07;;;1.92;;
54845;SDS011;53889;50.084;8.646;2023-11-19T14:27:35;10.15;;;3.05;;
54845;SDS011;53889;50.084;8.646;2023-11-19T14:30:03;7.30;;;1.73;;
54845;SDS011;53889;50.084;8.646;2023-11-19T14:32:31;8.30;;;2.15;;
54845;SDS011;53889;50.084;8.646;2023-11-19T14:34:58;6.95;;;1.98;;
54845;SDS011;53889;50.084;8.646;2023-11-19T14:37:26;8.85;;;1.83;;
54845;SDS011;53889;50.084;8.646;2023-11-19T14:39:52;6.38;;;1.50;;
54845;SDS011;53889;50.084;8.646;2023-11-19T14:42:19;9.95;;;1.55;;
54845;SDS011;53889;50.084;8.646;2023-11-19T14:44:47;10.00;;;1.63;;
54845;SDS011;53889;50.084;8.646;2023-11-19T14:47:14;7.05;;;2.10;;
54845;SDS011;53889;50.084;8.646;2023-11-19T14:49:41;8.95;;;1.67;;
54845;SDS011;53889;50.084;8.646;2023-11-19T14:52:08;8.07;;;1.60;;
54845;SDS011;53889;50.084;8.646;2023-11-19T14:54:37;8.50;;;1.65;;
54845;SDS011;53889;50.084;8.646;2023-11-19T14:57:04;9.88;;;2.28;;